Garden of the Gods

Overall Results

June 10, 2012


Results by Pikes Peak Road Runners. E-mail any corrections/questions to raceresults@pprrun.org

Please look over the results carefully and let us know if you notice any problems by sending an e-mail to Dave Sorenson at raceresults@pprrun.org.

We are experienced pulltag timers, but this is the first year we've used chip timing, so by no means do we claim to be seasoned chip timers,
as we are still in the "learning the ropes" phase, and will be in that phase for a good year or more.

Per the race director's, Ron Ilgen, decision, all results are scored based on chip time. This includes award placement, and detection of
new records. The TCR Series scoring will also be based on chip time. Gun time is shown on the result listings for informational purposes only.

If it looks like a chip time is not assigned to you, i.e., your chip time and gun time are equal, please let us know and we'll make the adjustment.
If you know who was near you when you crossed the starting mats, then we can easily make that adjustment.

For other questions about the race, please contact the race director via the contacts page at http://www.gardentenmile.com/contact.asp

Weather: Sunny with blue skies. Starting temp around 60, warming to the upper 60s by the latter part of the race.
Wind about 10 MPH.

Course: The 10 Mile course is on paved roads, except for a 1/2 mile section on a cement sidewalk. The first mile and last mile are
mostly on El Paso Blvd, which is slightly rolling. The other 8 miles are a loop-back through the spectacular
Garden of the Gods Park on the west edge of Colorado Springs. The rock formations and surrounding areas are
so unique and spectacular that they bring visitors from across America.

The course is quite hilly, in fact, there are few, if any, flat sections on the course. The elevation ranges
from 6,170 feet to 6,550 feet.

The 5K course is entirely on paved roads. The first mile and last mile are mostly on El Paso Blvd, which is slightly rolling.
The portion of the course within the park includes climbing up the entrance road to the Balanced Rock, going downhill to near
the Trading Post, then turning around and returning via the same route.

The 10M is the 1st leg of the Triple Crown of Running. The 2nd leg is the Summer Roundup Trail Run, a 12K trail race held in July.
The 3rd leg is either the Pikes Peak Ascent, or the ascent portion of the Pikes Peak Marathon, which are held in August.

 

5K

Overall Gender  
Place Place AG Place Bib Name Gender Age City Gun Time Chip Time Pace
1 1 Overall 2168 David R Powers M 19 Security CO 18:54 18:54 6:06/M
2 2 Overall 2078 Corey Lewenkamp M 15 Pueblo West CO 19:30 19:28 6:17/M
3 3 Overall 2046 Daniel Myers M 17 Colorado Spgs CO 19:43 19:40 6:21/M
4 4 Overall 2172 Keith A Morgan M 20 Colorado Spgs CO 20:17 20:14 6:32/M
5 5 Overall 2119 Matt Najarian M 16 Colorado Spgs CA 20:32 20:30 6:37/M
6 6 Overall 2115 Colin Adams M 15 Colorado Spgs CO 20:46 20:42 6:41/M
7 7 Overall 2149 Michael Guenther M 50 Monument CO 21:11 21:07 6:49/M
8 8 Overall 2144 Benjamin Blackhurst M 17 Colorado Spgs CO 21:16 21:11 6:50/M
9 1 Overall 2143 Bailey Blackhurst F 14 Colorado Spgs CO 21:22 21:18 6:52/M
10 9 Overall 2173 Eric J Morgan M 18 Cotopaxi CO 21:50 21:46 7:01/M
11 10 Overall 2178 Danny Watts M 14 Peyton CO 21:59 21:56 7:05/M
12 11 1 M 25-29 2163 Grant J Ambroz M 26 Colorado Spgs CO 22:14 22:05 7:07/M
13 12 2 M 1-14 2091 Mike R Greenbaum M 14 Colorado Spgs CO 22:24 22:16 7:11/M
14 13 1 M 35-39 2133 Jessie R Mendez M 37 Colorado Spgs CO 22:46 22:40 7:19/M
15 14 Master 2028 David Garrett M 51 Albuqurque NM 22:56 22:52 7:23/M
16 15 Master 2003 Michael Schenk M 59 Colorado Spgs CO 23:08 23:02 7:26/M
17 16 8 M 15-19 2036 Brandon Kronshage M 16 Colorado Spgs CO 23:11 23:02 7:26/M
18 17 2 M 35-39 2209 Randy Skellenger M 37 Lodi WI 23:10 23:10 7:28/M
19 18 Master 2008 Pablo Vigil M 60 Loveland CO 23:20 23:16 7:30/M
20 2 Overall 2170 Rene K Carter F 14 Colorado Spgs CO 23:28 23:22 7:32/M
21 19 2 M 25-29 2141 Andy Beltz M 25 Colorado Spgs CO 23:31 23:26 7:34/M
22 20 3 M 1-14 2052 William J Schenk M 13 Colorado Spgs CO 23:52 23:46 7:40/M
23 21 Master 2200 William Busovsky M 56 Colorado Spgs CO 23:54 23:48 7:41/M
24 3 Overall 2123 Tyra Evans F 27 Woolloongabba QLD 24:05 24:00 7:45/M
25 4 Overall 2110 Maya Neam F 22 Fort Collins CO 24:27 24:15 7:49/M
 
Overall Gender  
Place Place AG Place Bib Name Gender Age City Gun Time Chip Time Pace
26 22 3 M 35-39 2056 Keith J Silbor M 35 Phoenix AZ 24:32 24:26 7:53/M
27 5 Overall 2107 Caitlin Kievenaar F 23 Greeley CO 24:45 24:33 7:55/M
28 6 Overall 2072 Kimberly D Shenuk F 36 Colorado Spgs CO 24:51 24:46 7:59/M
29 23 4 M 1-14 2203 Dean Noble M 10 Wellington CO 25:20 25:15 8:09/M
30 7 Overall 2120 Cory Woodring F 44 Colorado Spgs CO 25:36 25:28 8:13/M
31 8 Overall 2092 Kylie Lanser F 14 Cadillac MI 25:53 25:43 8:18/M
32 24 Master 2093 Mark Lanser M 40 Cadillac MI 26:04 25:54 8:21/M
33 25 2 M 20-24 2102 Matthew Amechazurra M 24 Colorado Spgs CO 26:07 26:01 8:24/M
34 26 5 M 1-14 2037 Nicholas Kronshage M 12 Colorado Spgs CO 26:15 26:06 8:25/M
35 9 Overall 2166 Hannah K Brockie F 15 Colorado Spgs CO 26:21 26:16 8:28/M
36 27 3 M 55-59 2167 Mark C Brockie M 56 Colorado Spgs CO 26:21 26:16 8:28/M
37 28 2 M 40-44 2179 Marc Gonzalez M 43 Colorado Springs CO 26:32 26:25 8:31/M
38 10 Overall 2182 Elaina E Turley F 20 Colorado Spgs CO 27:11 27:01 8:43/M
39 11 2 F 15-19 2160 Jenna K Widman F 18 Colorado Spgs CO 27:43 27:34 8:54/M
40 12 3 F 15-19 2177 Katie Collier F 15 Colorado Spgs CO 27:59 27:54 9:00/M
41 29 3 M 50-54 2111 Manuel L Ramsey M 50 Colorado Spgs CO 28:07 27:58 9:01/M
42 13 4 F 20-24 2135 Laura Spindler F 21 Colorado Spgs CO 28:06 27:59 9:02/M
43 14 Master 2083 Jennifer Shotwell F 46 Colorado Spgs CO 28:10 28:01 9:02/M
44 30 3 M 25-29 2073 Iain Crawford M 26 Arlington VA 28:16 28:09 9:05/M
45 15 2 F 25-29 2015 Mandi L Berg F 28 Denver CO 28:26 28:13 9:06/M
46 16 Master 2136 Karen Williams F 52 Wichita KS 28:24 28:14 9:06/M
47 17 3 F 25-29 2128 Keely Lewandowski F 28 Denver CO 28:34 28:18 9:08/M
48 31 4 M 35-39 2017 Justin Chambers M 38 Colorado Spgs CO 28:30 28:22 9:09/M
49 32 1 M 0- 0 2188 John Wilooky M 0 Westminster CO 28:58 28:43 9:16/M
50 33 5 M 35-39 2158 Mark A Keller M 38 Colorado Spgs CO 29:06 28:52 9:19/M
 
Overall Gender  
Place Place AG Place Bib Name Gender Age City Gun Time Chip Time Pace
51 18 Master 2100 Karen E Pfeifer F 51 Colorado Spgs CO 29:03 28:55 9:20/M
52 34 6 M 35-39 2085 Christopher Vanderhoof M 36 Denver CO 29:07 28:56 9:20/M
53 35 4 M 50-54 2079 Stanley Moore M 54 Pueblo CO 29:14 28:59 9:21/M
54 36 1 M 45-49 2035 Timothy J Kirby M 49 Coconut Creek FL 29:09 29:01 9:22/M
55 37 7 M 35-39 2096 Jared Richman M 36 Colorado Spgs CO 29:14 29:09 9:24/M
56 38 6 M 1-14 2004 Hunter A Mullican M 14 Fountain CO 29:27 29:10 9:25/M
57 39 2 M 60-64 2157 Robert Hobbs M 60 Colorado Spgs CO 29:23 29:13 9:25/M
58 19 5 F 20-24 2108 Bianca Kriel F 21 Colorado Spgs CO 29:20 29:13 9:25/M
59 40 4 M 55-59 2098 John Thunen M 57 Centennial CO 29:21 29:15 9:26/M
60 20 Master 2156 Julie Hobbs F 58 Colorado Spgs CO 29:34 29:25 9:29/M
61 21 4 F 15-19 2183 Alexandra Chapman F 19 Coloradao Springs CO 29:39 29:26 9:30/M
62 22 1 F 30-34 2068 Laura Winkfein F 32 Denver CO 29:40 29:29 9:31/M
63 23 Master 2150 Michelle Chapman F 43 Colorado Spgs CO 29:53 29:39 9:34/M
64 41 1 M 70-74 2153 Jeff H Smith M 71 Colorado Spgs CO 29:58 29:49 9:37/M
65 24 6 F 20-24 2162 Marlena K Widman F 20 Colorado Spgs CO 29:59 29:49 9:37/M
66 25 3 F 40-44 2142 Helen Bedd F 44 Colorado Spgs CO 30:00 29:54 9:39/M
67 26 4 F 25-29 2011 Christine Anderson F 28 Alexandria VA 30:26 30:17 9:46/M
68 27 2 F 35-39 2005 Jena J Mullican F 35 Fountain CO 30:35 30:17 9:46/M
69 28 5 F 15-19 2041 Kyra Laurent F 15 Colorado Spgs CO 30:26 30:18 9:46/M
70 42 2 M 45-49 2087 David Zach M 47 Centennial CO 30:28 30:21 9:47/M
71 43 7 M 1-14 2089 Joshua Zach M 8 Centennial CO 30:28 30:21 9:47/M
72 29 2 F 30-34 2023 Jessica Diem F 33 Aurora CO 30:31 30:26 9:49/M
73 44 8 M 1-14 2152 Shane V Carrigan M 8 Falson CO 30:37 30:32 9:51/M
74 30 6 F 15-19 2050 Alyxx Sanchez F 18 Pueblo West CO 30:46 30:34 9:52/M
75 31 3 F 30-34 2018 Tamara Clark F 31 Green Mtn Falls CO 31:06 30:57 9:59/M
 
Overall Gender  
Place Place AG Place Bib Name Gender Age City Gun Time Chip Time Pace
76 32 4 F 40-44 2033 Heather Huntoon F 44 Idaho Springs CO 31:30 31:24 10:08/M
77 45 8 M 35-39 2081 Stuart Rhodes M 35 Colorado Spgs CO 31:37 31:24 10:08/M
78 46 3 M 45-49 2114 John Tweed M 47 Aurora CO 31:36 31:28 10:09/M
79 47 3 M 40-44 2171 Hunter L Helton M 41 Colorado Spgs CO 31:43 31:33 10:11/M
80 33 3 F 35-39 2080 Carmen L Perez F 39 Pueblo CO 31:57 31:45 10:15/M
81 34 3 F 50-54 2053 Anne-Marie Schmidt F 54 Idaho Springs CO 31:52 31:45 10:15/M
82 48 5 M 50-54 2184 Rich Derby M 52 Grand Rapids MI 31:54 31:47 10:15/M
83 35 5 F 40-44 22 Danielle Adams F 40 Colorado Spgs CO 32:03 31:55 10:18/M
84 49 4 M 45-49 2063 Tim Walilko M 46 Centennial CO 32:06 31:55 10:18/M
85 50 4 M 25-29 2118 Greg Miller M 29 Colorado Spgs CO 32:15 32:02 10:20/M
86 36 4 F 50-54 2002 Catherine E Hopkins F 53 Colorado Spgs CO 32:20 32:14 10:24/M
87 37 4 F 30-34 2032 Kendre Hierlmeier F 33 USAF Academy CO 32:33 32:17 10:25/M
88 51 3 M 20-24 2109 Casey Nation M 22 Fort Collins CO 32:41 32:25 10:27/M
89 38 5 F 30-34 2185 Tameka Dzuricky F 33 Colorado Springs CO 32:32 32:25 10:27/M
90 39 6 F 30-34 2186 Jaime Castilloraby F 33 Divide CO 32:32 32:25 10:27/M
91 40 7 F 20-24 2105 Carina Crosby F 21 Fort Collins CO 32:41 32:25 10:27/M
92 52 9 M 35-39 2034 Chad Kimball M 39 Colorado Spgs CO 32:50 32:27 10:28/M
93 41 7 F 30-34 2169 Melissa G Shaw F 31 Colorado Spgs CO 32:46 32:28 10:28/M
94 42 4 F 1-14 2054 Morgan Shoemake F 12 Colorado Spgs CO 32:37 32:29 10:29/M
95 53 4 M 40-44 2067 Rob Wiley M 41 Castle Rock CO 32:58 32:45 10:34/M
96 54 5 M 40-44 2208 Sammy Sain M 41 Peyton CO 32:55 32:50 10:35/M
97 43 7 F 15-19 2101 Sullivan Waskosky F 15 Colorado Spgs CO 33:00 32:53 10:36/M
98 44 2 F 45-49 2070 Jennifer Allen F 46 Colorado Spgs CO 33:02 32:55 10:37/M
99 45 3 F 45-49 2000 Connie D Smith F 49 Woodland Park CO 33:12 33:00 10:39/M
100 55 9 M 1-14 2147 Sammy Deep M 7 Beavercreek OH 33:20 33:04 10:40/M
 
Overall Gender  
Place Place AG Place Bib Name Gender Age City Gun Time Chip Time Pace
101 46 4 F 35-39 2045 Mary McEwan F 37 Colorado Spgs CO 33:07 33:07 10:41/M
102 47 5 F 35-39 2044 Lori McDermott F 37 Cherry Hills Village CO 33:30 33:15 10:44/M
103 48 4 F 45-49 2088 Debbie Zach F 46 Centennial CO 33:24 33:17 10:44/M
104 49 6 F 35-39 2077 Shelley Hitz F 37 Colorado Spgs CO 33:41 33:28 10:48/M
105 50 5 F 45-49 2205 Jill Quirico F 45 Colorado Spgs CO 33:48 33:35 10:50/M
106 51 8 F 20-24 2181 Jenna Mulligan F 22 Colorado Spgs CO 34:12 34:01 10:58/M
107 56 6 M 50-54 2180 Geoff Mulligan M 54 Colorado Spgs CO 34:12 34:02 10:59/M
108 52 6 F 40-44 2097 Loree Decker F 42 Parker CO 34:29 34:13 11:02/M
109 57 10 M 1-14 2148 Tommy Deep M 10 Beavercreek OH 34:40 34:22 11:05/M
110 58 6 M 40-44 2127 James W Larsen M 43 Englewood CO 35:07 34:53 11:15/M
111 53 7 F 40-44 2006 Gina Garcia F 44 Pueblo West CO 35:12 35:00 11:17/M
112 54 5 F 25-29 2134 Sarah Pacaya F 28 Colorado Spgs CO 35:13 35:13 11:22/M
113 55 6 F 25-29 1447 Angela N Miller F 29 Colorado Spgs CO 35:30 35:19 11:24/M
114 56 8 F 40-44 2165 Rae Bungall F 44 Colorado Spgs CO 35:31 35:19 11:24/M
115 57 9 F 20-24 2161 Kim Morgan F 22 Colorado Spgs CO 35:34 35:29 11:27/M
116 58 7 F 25-29 2151 Barbara R Rutter F 29 Manitou Springs CO 35:46 35:35 11:29/M
117 59 4 M 20-24 2125 Garfield Gerholdt M 22 Colorado Spgs CO 35:55 35:44 11:32/M
118 60 11 M 1-14 2175 Michael Collier M 13 Colorado Spgs CO 36:19 36:13 11:41/M
119 61 10 M 35-39 2176 Timothy Collier M 39 Colorado Spgs CO 36:19 36:14 11:41/M
120 62 5 M 25-29 2013 Colton C Bartel M 27 Liberal KS 36:58 36:40 11:50/M
121 63 11 M 35-39 2104 Michael Brakel M 39 Cibolo TX 37:13 36:52 11:54/M
122 59 5 F 50-54 2059 Joanne Smaldino-Bennett F 52 Monument CO 37:21 37:12 12:00/M
123 60 7 F 35-39 2055 Jennifer L Silbor F 35 Phoenix AZ 37:26 37:17 12:02/M
124 61 5 F 1-14 2074 Elizabeth Gazzam F 7 Euless TX 37:44 37:35 12:07/M
125 62 8 F 25-29 2061 Jennifer Taylor F 27 Colorado Spgs CO 38:01 37:39 12:09/M
 
Overall Gender  
Place Place AG Place Bib Name Gender Age City Gun Time Chip Time Pace
126 63 9 F 40-44 2019 Kim Darden F 42 Andover KS 37:52 37:41 12:09/M
127 64 12 M 1-14 2075 Tyler Gazzam M 8 Euless TX 37:54 37:44 12:10/M
128 65 7 M 40-44 294 George Gazzam M 42 Euless TX 37:54 37:45 12:11/M
129 64 8 F 35-39 295 Lisa Gazzam F 38 Euless TX 38:10 38:01 12:16/M
130 65 8 F 30-34 2025 Michele Edling F 31 Fountain CO 38:31 38:16 12:21/M
131 66 9 F 35-39 2021 Cindy K Davis F 37 Lansing MI 38:32 38:18 12:21/M
132 67 6 F 45-49 2124 Angie Gerholdt F 45 Colorado Spgs CO 38:46 38:35 12:27/M
133 68 10 F 35-39 2090 Nicole Anderson F 36 Colorado Spgs CO 38:50 38:36 12:27/M
134 69 10 F 20-24 2014 Morgan L Bartel F 23 Liberal KS 39:01 38:43 12:29/M
135 70 9 F 30-34 2048 Katie Rizzuto F 34 Colorado Spgs CO 39:14 38:51 12:32/M
136 71 6 F 1-14 2202 Amber Noble F 9 Wellington CO 39:19 39:02 12:35/M
137 72 7 F 1-14 2204 Katie Noble F 12 Wellington CO 39:18 39:02 12:35/M
138 73 11 F 35-39 2020 Beka Davis F 39 Boulder CO 39:32 39:24 12:43/M
139 74 10 F 30-34 2103 Jennie K Bachelor F 30 Pueblo CO 39:54 39:44 12:49/M
140 75 11 F 20-24 2024 Stephanie F Dillon F 23 Colorado Spgs CO 39:55 39:44 12:49/M
141 76 9 F 25-29 2099 Alisha Zellner F 25 Fort Collins CO 40:12 39:59 12:54/M
142 66 9 M 15-19 2121 Garrett Brock M 18 Wichita Falls TX 40:23 40:09 12:57/M
143 67 12 M 35-39 2126 Jason Johnson M 35 Colorado Spgs CO 40:26 40:18 13:00/M
144 77 10 F 25-29 2058 Colleen Slavens F 27 Highlands Ranch CO 40:38 40:23 13:02/M
145 78 11 F 30-34 2030 Jennifer Green F 30 Colorado Spgs CO 40:48 40:30 13:04/M
146 68 5 M 20-24 2001 Cory R Sparks M 24 Peyton CO 40:39 40:39 13:07/M
148 79 7 F 45-49 2137 Ann H Adams F 47 Colorado Spgs CO 41:39 41:21 13:20/M
147 69 5 M 55-59 2138 Thomas C Adams M 56 Colorado Spgs CO 41:39 41:21 13:20/M
149 80 11 F 25-29 2049 Lori Roark F 29 Shreveport LA 42:57 42:43 13:47/M
150 70 13 M 1-14 2206 Gavin Sain M 11 Peyton CO 42:52 42:46 13:48/M
 
Overall Gender  
Place Place AG Place Bib Name Gender Age City Gun Time Chip Time Pace
151 81 10 F 40-44 2207 Ginger Sain F 41 Peyton CO 42:52 42:46 13:48/M
152 82 1 F 65-69 2012 Ilda Aurelio F 67 Thornton CO 43:14 43:10 13:55/M
153 83 2 F 55-59 2040 Vickie L Lakes F 55 Miamisburg OH 44:34 44:13 14:16/M
154 84 12 F 25-29 251 Elizabeth A Farrelly F 28 Denver CO 45:25 45:05 14:33/M
155 85 13 F 25-29 2027 Rachel M Ehbrecht F 27 Aurora CO 45:29 45:06 14:33/M
156 71 6 M 20-24 2026 Frank B Ehbrecht M 24 Aurora CO 45:29 45:06 14:33/M
157 86 3 F 55-59 2106 Gale L Gerken F 58 Colorado Spgs CO 45:49 45:37 14:43/M
158 87 12 F 35-39 2060 Beverly D Suazo F 38 Denver CO 46:22 46:08 14:53/M
159 88 6 F 50-54 2159 Sharon Burton F 50 Divide CO 46:39 46:18 14:56/M
160 89 4 F 55-59 2071 Donna Craig F 55 Colorado Spgs CO 46:42 46:27 14:59/M
161 90 11 F 40-44 2145 Abby Deep F 41 Beavercreek OH 52:47 52:30 16:56/M
162 72 14 M 1-14 2146 Johnny Deep M 9 Beavercreek OH 52:47 52:30 16:56/M
163 91 12 F 20-24 2140 Lauren Baxter F 21 Littleton CO 53:06 52:44 17:01/M
164 73 6 M 25-29 2139 Daniel R Baxter M 29 Littleton CO 53:06 52:44 17:01/M
165 92 8 F 15-19 2038 Jenna R Lakes F 15 Miamisburg OH 53:05 52:46 17:01/M
166 93 7 F 50-54 2189 Patricia Zellner F 53 Colorado Springs CO 54:06 52:51 17:03/M
167 94 9 F 15-19 2039 Kristen N Lakes F 18 Miamisburg OH 53:14 52:54 17:04/M
168 95 5 F 55-59 2117 Lori Henley F 58 Denver CO 55:12 55:00 17:45/M
169 74 7 M 25-29 2122 Sandeep Reddy Chelamacherla Anand M 28 Denver CO 55:36 55:22 17:52/M
170 96 1 F 60-64 2065 Susan E Westervelt F 61 Golden CO 56:29 56:16 18:09/M
171 75 3 M 60-64 2062 Michael Van Atta M 64 Golden CO 56:29 56:17 18:09/M
172 97 13 F 35-39 2022 Jackie Davis F 35 Enid OK 1:02:13 1:01:58 19:59/M